sensor_id;sensor_type;location;lat;lon;timestamp;temperature;humidity
51557;DHT22;38766;53.194;5.532;2023-08-31T00:01:39;13.60;99.90
51557;DHT22;38766;53.194;5.532;2023-08-31T00:04:05;13.60;99.90
51557;DHT22;38766;53.194;5.532;2023-08-31T00:06:42;13.50;99.90
51557;DHT22;38766;53.194;5.532;2023-08-31T00:09:10;13.50;99.90
51557;DHT22;38766;53.194;5.532;2023-08-31T00:11:37;13.50;99.90
51557;DHT22;38766;53.194;5.532;2023-08-31T00:14:03;13.50;99.90
51557;DHT22;38766;53.194;5.532;2023-08-31T00:16:29;13.40;99.90
51557;DHT22;38766;53.194;5.532;2023-08-31T00:18:58;13.40;99.90
51557;DHT22;38766;53.194;5.532;2023-08-31T00:21:24;13.40;99.90
51557;DHT22;38766;53.194;5.532;2023-08-31T00:23:50;13.30;99.90
51557;DHT22;38766;53.194;5.532;2023-08-31T00:26:16;13.30;99.90
51557;DHT22;38766;53.194;5.532;2023-08-31T00:28:41;13.20;99.90
51557;DHT22;38766;53.194;5.532;2023-08-31T00:31:08;13.30;99.90
51557;DHT22;38766;53.194;5.532;2023-08-31T00:33:34;13.20;99.90
51557;DHT22;38766;53.194;5.532;2023-08-31T00:36:00;13.20;99.90
51557;DHT22;38766;53.194;5.532;2023-08-31T00:38:30;13.10;99.90
51557;DHT22;38766;53.194;5.532;2023-08-31T00:40:56;13.10;99.90
51557;DHT22;38766;53.194;5.532;2023-08-31T00:43:22;13.10;99.90
51557;DHT22;38766;53.194;5.532;2023-08-31T00:45:49;13.10;99.90
51557;DHT22;38766;53.194;5.532;2023-08-31T00:48:17;13.00;99.90
51557;DHT22;38766;53.194;5.532;2023-08-31T00:50:46;13.00;99.90
51557;DHT22;38766;53.194;5.532;2023-08-31T00:53:12;13.00;99.90
51557;DHT22;38766;53.194;5.532;2023-08-31T00:55:38;13.00;99.90
51557;DHT22;38766;53.194;5.532;2023-08-31T00:58:07;13.00;99.90
51557;DHT22;38766;53.194;5.532;2023-08-31T01:03:06;13.00;99.90
51557;DHT22;38766;53.194;5.532;2023-08-31T01:05:46;13.00;99.90
51557;DHT22;38766;53.194;5.532;2023-08-31T01:08:29;13.10;99.90
51557;DHT22;38766;53.194;5.532;2023-08-31T01:11:13;13.00;99.90
51557;DHT22;38766;53.194;5.532;2023-08-31T01:13:51;13.00;99.90
51557;DHT22;38766;53.194;5.532;2023-08-31T01:16:17;13.00;99.90
51557;DHT22;38766;53.194;5.532;2023-08-31T01:18:45;13.00;99.90
51557;DHT22;38766;53.194;5.532;2023-08-31T01:21:20;12.90;99.90
51557;DHT22;38766;53.194;5.532;2023-08-31T01:23:55;12.90;99.90
51557;DHT22;38766;53.194;5.532;2023-08-31T01:26:22;12.90;99.90
51557;DHT22;38766;53.194;5.532;2023-08-31T01:28:49;12.90;99.90
51557;DHT22;38766;53.194;5.532;2023-08-31T01:31:15;12.90;99.90
51557;DHT22;38766;53.194;5.532;2023-08-31T01:33:42;12.90;99.90
51557;DHT22;38766;53.194;5.532;2023-08-31T01:36:27;12.90;99.90
51557;DHT22;38766;53.194;5.532;2023-08-31T01:39:14;12.90;99.90
51557;DHT22;38766;53.194;5.532;2023-08-31T01:41:44;12.90;99.90
51557;DHT22;38766;53.194;5.532;2023-08-31T01:44:13;13.00;99.90
51557;DHT22;38766;53.194;5.532;2023-08-31T01:46:42;13.00;99.90
51557;DHT22;38766;53.194;5.532;2023-08-31T01:49:10;13.10;99.90
51557;DHT22;38766;53.194;5.532;2023-08-31T01:51:35;13.10;99.90
51557;DHT22;38766;53.194;5.532;2023-08-31T01:54:01;13.20;99.90
51557;DHT22;38766;53.194;5.532;2023-08-31T01:56:27;13.20;99.90
51557;DHT22;38766;53.194;5.532;2023-08-31T01:58:53;13.30;99.90
51557;DHT22;38766;53.194;5.532;2023-08-31T02:01:18;13.30;99.90
51557;DHT22;38766;53.194;5.532;2023-08-31T02:03:44;13.40;99.90
51557;DHT22;38766;53.194;5.532;2023-08-31T02:06:10;13.40;99.90
51557;DHT22;38766;53.194;5.532;2023-08-31T02:08:35;13.50;99.90
51557;DHT22;38766;53.194;5.532;2023-08-31T02:11:01;13.50;99.90
51557;DHT22;38766;53.194;5.532;2023-08-31T02:13:27;13.60;99.90
51557;DHT22;38766;53.194;5.532;2023-08-31T02:15:53;13.60;99.90
51557;DHT22;38766;53.194;5.532;2023-08-31T02:18:19;13.60;99.90
51557;DHT22;38766;53.194;5.532;2023-08-31T02:20:45;13.60;99.90
51557;DHT22;38766;53.194;5.532;2023-08-31T02:23:11;13.70;99.90
51557;DHT22;38766;53.194;5.532;2023-08-31T02:25:37;13.70;99.90
51557;DHT22;38766;53.194;5.532;2023-08-31T02:28:03;13.70;99.90
51557;DHT22;38766;53.194;5.532;2023-08-31T02:30:30;13.70;99.90
51557;DHT22;38766;53.194;5.532;2023-08-31T02:32:56;13.70;99.90
51557;DHT22;38766;53.194;5.532;2023-08-31T02:35:21;13.70;99.90
51557;DHT22;38766;53.194;5.532;2023-08-31T02:37:47;13.70;99.90
51557;DHT22;38766;53.194;5.532;2023-08-31T02:40:13;13.70;99.90
51557;DHT22;38766;53.194;5.532;2023-08-31T02:42:38;13.70;99.90
51557;DHT22;38766;53.194;5.532;2023-08-31T02:45:04;13.70;99.90
51557;DHT22;38766;53.194;5.532;2023-08-31T02:47:30;13.70;99.90
51557;DHT22;38766;53.194;5.532;2023-08-31T02:49:56;13.70;99.90
51557;DHT22;38766;53.194;5.532;2023-08-31T02:52:21;13.60;99.90
51557;DHT22;38766;53.194;5.532;2023-08-31T02:54:47;13.60;99.90
51557;DHT22;38766;53.194;5.532;2023-08-31T02:57:13;13.60;99.90
51557;DHT22;38766;53.194;5.532;2023-08-31T02:59:40;13.70;99.90
51557;DHT22;38766;53.194;5.532;2023-08-31T03:02:07;13.60;99.90
51557;DHT22;38766;53.194;5.532;2023-08-31T03:04:33;13.60;99.90
51557;DHT22;38766;53.194;5.532;2023-08-31T03:06:59;13.70;99.90
51557;DHT22;38766;53.194;5.532;2023-08-31T03:09:25;13.60;99.90
51557;DHT22;38766;53.194;5.532;2023-08-31T03:11:51;13.60;99.90
51557;DHT22;38766;53.194;5.532;2023-08-31T03:14:17;13.70;99.90
51557;DHT22;38766;53.194;5.532;2023-08-31T03:16:42;13.60;99.90
51557;DHT22;38766;53.194;5.532;2023-08-31T03:19:08;13.60;99.90
51557;DHT22;38766;53.194;5.532;2023-08-31T03:21:34;13.60;99.90
51557;DHT22;38766;53.194;5.532;2023-08-31T03:24:00;13.60;99.90
51557;DHT22;38766;53.194;5.532;2023-08-31T03:26:25;13.60;99.90
51557;DHT22;38766;53.194;5.532;2023-08-31T03:28:51;13.50;99.90
51557;DHT22;38766;53.194;5.532;2023-08-31T03:31:17;13.50;99.90
51557;DHT22;38766;53.194;5.532;2023-08-31T03:33:42;13.50;99.90
51557;DHT22;38766;53.194;5.532;2023-08-31T03:36:08;13.50;99.90
51557;DHT22;38766;53.194;5.532;2023-08-31T03:38:34;13.50;99.90
51557;DHT22;38766;53.194;5.532;2023-08-31T03:41:03;13.50;99.90
51557;DHT22;38766;53.194;5.532;2023-08-31T03:43:29;13.50;99.90
51557;DHT22;38766;53.194;5.532;2023-08-31T03:45:56;13.50;99.90
51557;DHT22;38766;53.194;5.532;2023-08-31T03:48:23;13.50;99.90
51557;DHT22;38766;53.194;5.532;2023-08-31T03:50:52;13.50;99.90
51557;DHT22;38766;53.194;5.532;2023-08-31T03:53:18;13.40;99.90
51557;DHT22;38766;53.194;5.532;2023-08-31T03:55:44;13.40;99.90
51557;DHT22;38766;53.194;5.532;2023-08-31T03:58:10;13.40;99.90
51557;DHT22;38766;53.194;5.532;2023-08-31T04:00:39;13.40;99.90
51557;DHT22;38766;53.194;5.532;2023-08-31T04:03:05;13.40;99.90
51557;DHT22;38766;53.194;5.532;2023-08-31T04:05:34;13.40;99.90
51557;DHT22;38766;53.194;5.532;2023-08-31T04:08:00;13.30;99.90
51557;DHT22;38766;53.194;5.532;2023-08-31T04:10:26;13.30;99.90
51557;DHT22;38766;53.194;5.532;2023-08-31T04:12:52;13.30;99.90
51557;DHT22;38766;53.194;5.532;2023-08-31T04:15:18;13.30;99.90
51557;DHT22;38766;53.194;5.532;2023-08-31T04:17:44;13.30;99.90
51557;DHT22;38766;53.194;5.532;2023-08-31T04:20:11;13.20;99.90
51557;DHT22;38766;53.194;5.532;2023-08-31T04:22:37;13.20;99.90
51557;DHT22;38766;53.194;5.532;2023-08-31T04:25:03;13.20;99.90
51557;DHT22;38766;53.194;5.532;2023-08-31T04:27:29;13.20;99.90
51557;DHT22;38766;53.194;5.532;2023-08-31T04:30:05;13.20;99.90
51557;DHT22;38766;53.194;5.532;2023-08-31T04:32:32;13.20;99.90
51557;DHT22;38766;53.194;5.532;2023-08-31T04:34:58;13.10;99.90
51557;DHT22;38766;53.194;5.532;2023-08-31T04:37:24;13.20;99.90
51557;DHT22;38766;53.194;5.532;2023-08-31T04:39:49;13.10;99.90
51557;DHT22;38766;53.194;5.532;2023-08-31T04:42:15;13.10;99.90
51557;DHT22;38766;53.194;5.532;2023-08-31T04:44:42;13.10;99.90
51557;DHT22;38766;53.194;5.532;2023-08-31T04:47:08;13.10;99.90
51557;DHT22;38766;53.194;5.532;2023-08-31T04:49:33;13.10;99.90
51557;DHT22;38766;53.194;5.532;2023-08-31T04:51:59;13.10;99.90
51557;DHT22;38766;53.194;5.532;2023-08-31T04:54:25;13.10;99.90
51557;DHT22;38766;53.194;5.532;2023-08-31T04:56:51;13.10;99.90
51557;DHT22;38766;53.194;5.532;2023-08-31T04:59:16;13.10;99.90
51557;DHT22;38766;53.194;5.532;2023-08-31T05:01:42;13.10;99.90
51557;DHT22;38766;53.194;5.532;2023-08-31T05:04:08;13.10;99.90
51557;DHT22;38766;53.194;5.532;2023-08-31T05:06:33;13.20;99.90
51557;DHT22;38766;53.194;5.532;2023-08-31T05:09:00;13.20;99.90
51557;DHT22;38766;53.194;5.532;2023-08-31T05:11:26;13.20;99.90
51557;DHT22;38766;53.194;5.532;2023-08-31T05:13:51;13.20;99.90
51557;DHT22;38766;53.194;5.532;2023-08-31T05:16:17;13.20;99.90
51557;DHT22;38766;53.194;5.532;2023-08-31T05:18:43;13.20;99.90
51557;DHT22;38766;53.194;5.532;2023-08-31T05:21:08;13.20;99.90
51557;DHT22;38766;53.194;5.532;2023-08-31T05:23:34;13.30;99.90
51557;DHT22;38766;53.194;5.532;2023-08-31T05:26:00;13.30;99.90
51557;DHT22;38766;53.194;5.532;2023-08-31T05:28:27;13.30;99.90
51557;DHT22;38766;53.194;5.532;2023-08-31T05:30:55;13.40;99.90
51557;DHT22;38766;53.194;5.532;2023-08-31T05:33:21;13.40;99.90
51557;DHT22;38766;53.194;5.532;2023-08-31T05:35:54;13.50;99.90
51557;DHT22;38766;53.194;5.532;2023-08-31T05:38:20;13.60;99.90
51557;DHT22;38766;53.194;5.532;2023-08-31T05:40:46;13.60;99.90
51557;DHT22;38766;53.194;5.532;2023-08-31T05:43:12;13.60;99.90
51557;DHT22;38766;53.194;5.532;2023-08-31T05:45:38;13.70;99.90
51557;DHT22;38766;53.194;5.532;2023-08-31T05:48:04;13.70;99.90
51557;DHT22;38766;53.194;5.532;2023-08-31T05:50:30;13.80;99.90
51557;DHT22;38766;53.194;5.532;2023-08-31T05:52:57;13.80;99.90
51557;DHT22;38766;53.194;5.532;2023-08-31T05:55:22;13.80;99.90
51557;DHT22;38766;53.194;5.532;2023-08-31T05:57:48;13.80;99.90
51557;DHT22;38766;53.194;5.532;2023-08-31T06:00:14;13.80;99.90
51557;DHT22;38766;53.194;5.532;2023-08-31T06:02:40;13.80;99.90
51557;DHT22;38766;53.194;5.532;2023-08-31T06:05:07;13.80;99.90
51557;DHT22;38766;53.194;5.532;2023-08-31T06:07:32;13.90;99.90
51557;DHT22;38766;53.194;5.532;2023-08-31T06:09:58;13.90;99.90
51557;DHT22;38766;53.194;5.532;2023-08-31T06:12:24;13.90;99.90
51557;DHT22;38766;53.194;5.532;2023-08-31T06:14:50;14.00;99.90
51557;DHT22;38766;53.194;5.532;2023-08-31T06:17:15;14.00;99.90
51557;DHT22;38766;53.194;5.532;2023-08-31T06:19:41;14.10;99.90
51557;DHT22;38766;53.194;5.532;2023-08-31T06:22:08;14.10;99.90
51557;DHT22;38766;53.194;5.532;2023-08-31T06:24:34;14.20;99.90
51557;DHT22;38766;53.194;5.532;2023-08-31T06:27:00;14.20;99.90
51557;DHT22;38766;53.194;5.532;2023-08-31T06:29:26;14.30;99.90
51557;DHT22;38766;53.194;5.532;2023-08-31T06:31:51;14.40;99.90
51557;DHT22;38766;53.194;5.532;2023-08-31T06:34:17;14.40;99.90
51557;DHT22;38766;53.194;5.532;2023-08-31T06:36:43;14.50;99.90
51557;DHT22;38766;53.194;5.532;2023-08-31T06:39:08;14.50;99.90
51557;DHT22;38766;53.194;5.532;2023-08-31T06:41:34;14.60;99.90
51557;DHT22;38766;53.194;5.532;2023-08-31T06:43:59;14.80;99.90
51557;DHT22;38766;53.194;5.532;2023-08-31T06:46:25;15.30;99.90
51557;DHT22;38766;53.194;5.532;2023-08-31T06:48:51;16.20;99.90
51557;DHT22;38766;53.194;5.532;2023-08-31T06:51:17;16.90;99.90
51557;DHT22;38766;53.194;5.532;2023-08-31T06:53:43;17.60;99.90
51557;DHT22;38766;53.194;5.532;2023-08-31T06:56:09;18.20;99.90
51557;DHT22;38766;53.194;5.532;2023-08-31T06:58:38;18.80;99.90
51557;DHT22;38766;53.194;5.532;2023-08-31T07:01:06;19.20;99.90
51557;DHT22;38766;53.194;5.532;2023-08-31T07:03:31;19.40;99.90
51557;DHT22;38766;53.194;5.532;2023-08-31T07:05:57;19.60;99.90
51557;DHT22;38766;53.194;5.532;2023-08-31T07:08:23;19.60;99.90
51557;DHT22;38766;53.194;5.532;2023-08-31T07:10:51;19.40;99.90
51557;DHT22;38766;53.194;5.532;2023-08-31T07:13:17;19.40;99.90
51557;DHT22;38766;53.194;5.532;2023-08-31T07:15:43;19.20;99.90
51557;DHT22;38766;53.194;5.532;2023-08-31T07:18:11;19.10;99.90
51557;DHT22;38766;53.194;5.532;2023-08-31T07:20:37;18.90;99.90
51557;DHT22;38766;53.194;5.532;2023-08-31T07:23:03;18.70;99.90
51557;DHT22;38766;53.194;5.532;2023-08-31T07:25:29;18.40;99.90
51557;DHT22;38766;53.194;5.532;2023-08-31T07:27:55;18.10;99.90
51557;DHT22;38766;53.194;5.532;2023-08-31T07:30:20;17.70;99.90
51557;DHT22;38766;53.194;5.532;2023-08-31T07:32:46;17.40;99.90
51557;DHT22;38766;53.194;5.532;2023-08-31T07:35:12;17.20;99.90
51557;DHT22;38766;53.194;5.532;2023-08-31T07:37:38;16.90;99.90
51557;DHT22;38766;53.194;5.532;2023-08-31T07:40:04;16.70;99.90
51557;DHT22;38766;53.194;5.532;2023-08-31T07:42:35;16.50;99.90
51557;DHT22;38766;53.194;5.532;2023-08-31T07:45:00;16.20;99.90
51557;DHT22;38766;53.194;5.532;2023-08-31T07:47:26;16.20;99.90
51557;DHT22;38766;53.194;5.532;2023-08-31T07:49:52;16.30;99.90
51557;DHT22;38766;53.194;5.532;2023-08-31T07:52:17;16.50;99.90
51557;DHT22;38766;53.194;5.532;2023-08-31T07:54:43;16.80;99.90
51557;DHT22;38766;53.194;5.532;2023-08-31T07:57:08;17.10;99.90
51557;DHT22;38766;53.194;5.532;2023-08-31T07:59:34;17.40;99.90
51557;DHT22;38766;53.194;5.532;2023-08-31T08:02:00;17.60;99.90
51557;DHT22;38766;53.194;5.532;2023-08-31T08:04:25;17.70;99.90
51557;DHT22;38766;53.194;5.532;2023-08-31T08:06:52;17.90;99.90
51557;DHT22;38766;53.194;5.532;2023-08-31T08:09:18;17.90;99.90
51557;DHT22;38766;53.194;5.532;2023-08-31T08:11:43;17.90;99.90
51557;DHT22;38766;53.194;5.532;2023-08-31T08:14:09;18.00;99.90
51557;DHT22;38766;53.194;5.532;2023-08-31T08:16:35;18.20;99.90
51557;DHT22;38766;53.194;5.532;2023-08-31T08:19:02;18.40;99.90
51557;DHT22;38766;53.194;5.532;2023-08-31T08:21:27;18.60;99.90
51557;DHT22;38766;53.194;5.532;2023-08-31T08:23:53;18.80;99.90
51557;DHT22;38766;53.194;5.532;2023-08-31T08:26:18;18.90;99.90
51557;DHT22;38766;53.194;5.532;2023-08-31T08:28:44;19.10;99.90
51557;DHT22;38766;53.194;5.532;2023-08-31T08:31:11;19.30;99.90
51557;DHT22;38766;53.194;5.532;2023-08-31T08:33:37;19.40;99.90
51557;DHT22;38766;53.194;5.532;2023-08-31T08:36:02;19.60;99.90
51557;DHT22;38766;53.194;5.532;2023-08-31T08:38:28;19.70;99.90
51557;DHT22;38766;53.194;5.532;2023-08-31T08:40:54;19.80;99.90
51557;DHT22;38766;53.194;5.532;2023-08-31T08:43:26;20.00;99.90
51557;DHT22;38766;53.194;5.532;2023-08-31T08:45:54;20.10;99.90
51557;DHT22;38766;53.194;5.532;2023-08-31T08:48:20;20.20;99.90
51557;DHT22;38766;53.194;5.532;2023-08-31T08:50:47;20.30;99.90
51557;DHT22;38766;53.194;5.532;2023-08-31T08:53:14;20.40;99.90
51557;DHT22;38766;53.194;5.532;2023-08-31T08:55:43;20.60;99.90
51557;DHT22;38766;53.194;5.532;2023-08-31T08:58:09;20.60;99.90
51557;DHT22;38766;53.194;5.532;2023-08-31T09:00:35;20.60;99.90
51557;DHT22;38766;53.194;5.532;2023-08-31T09:03:01;20.70;99.90
51557;DHT22;38766;53.194;5.532;2023-08-31T09:05:32;20.80;99.90
51557;DHT22;38766;53.194;5.532;2023-08-31T09:08:05;20.70;99.90
51557;DHT22;38766;53.194;5.532;2023-08-31T09:10:33;20.40;99.90
51557;DHT22;38766;53.194;5.532;2023-08-31T09:13:00;20.10;99.90
51557;DHT22;38766;53.194;5.532;2023-08-31T09:15:25;19.80;99.90
51557;DHT22;38766;53.194;5.532;2023-08-31T09:17:52;19.60;99.90
51557;DHT22;38766;53.194;5.532;2023-08-31T09:20:17;19.50;99.90
51557;DHT22;38766;53.194;5.532;2023-08-31T09:22:43;19.60;99.90
51557;DHT22;38766;53.194;5.532;2023-08-31T09:25:12;19.80;99.90
51557;DHT22;38766;53.194;5.532;2023-08-31T09:27:38;19.90;99.90
51557;DHT22;38766;53.194;5.532;2023-08-31T09:30:06;20.10;99.90
51557;DHT22;38766;53.194;5.532;2023-08-31T09:32:32;20.20;99.90
51557;DHT22;38766;53.194;5.532;2023-08-31T09:34:58;20.30;99.90
51557;DHT22;38766;53.194;5.532;2023-08-31T09:37:28;20.30;99.90
51557;DHT22;38766;53.194;5.532;2023-08-31T09:39:54;20.40;99.90
51557;DHT22;38766;53.194;5.532;2023-08-31T09:42:20;20.40;99.90
51557;DHT22;38766;53.194;5.532;2023-08-31T09:44:49;20.40;99.90
51557;DHT22;38766;53.194;5.532;2023-08-31T09:47:15;20.20;99.90
51557;DHT22;38766;53.194;5.532;2023-08-31T09:49:42;20.10;99.90
51557;DHT22;38766;53.194;5.532;2023-08-31T09:52:09;20.10;99.90
51557;DHT22;38766;53.194;5.532;2023-08-31T09:54:35;20.00;99.90
51557;DHT22;38766;53.194;5.532;2023-08-31T09:57:02;19.80;99.90
51557;DHT22;38766;53.194;5.532;2023-08-31T09:59:28;19.60;99.90
51557;DHT22;38766;53.194;5.532;2023-08-31T10:01:55;19.40;99.90
51557;DHT22;38766;53.194;5.532;2023-08-31T10:04:23;19.20;99.90
51557;DHT22;38766;53.194;5.532;2023-08-31T10:06:49;19.20;99.90
51557;DHT22;38766;53.194;5.532;2023-08-31T10:09:16;19.30;99.90
51557;DHT22;38766;53.194;5.532;2023-08-31T10:11:42;19.40;99.90
51557;DHT22;38766;53.194;5.532;2023-08-31T10:14:11;19.60;99.90
51557;DHT22;38766;53.194;5.532;2023-08-31T10:16:39;19.80;99.90
51557;DHT22;38766;53.194;5.532;2023-08-31T10:19:06;19.90;99.90
51557;DHT22;38766;53.194;5.532;2023-08-31T10:21:32;20.10;99.90
51557;DHT22;38766;53.194;5.532;2023-08-31T10:23:59;20.10;99.90
51557;DHT22;38766;53.194;5.532;2023-08-31T10:26:29;20.20;99.90
51557;DHT22;38766;53.194;5.532;2023-08-31T10:28:57;20.20;99.90
51557;DHT22;38766;53.194;5.532;2023-08-31T10:31:24;20.20;99.90
51557;DHT22;38766;53.194;5.532;2023-08-31T10:36:38;20.00;99.90
51557;DHT22;38766;53.194;5.532;2023-08-31T10:39:22;19.80;99.90
51557;DHT22;38766;53.194;5.532;2023-08-31T10:41:57;19.70;99.90
51557;DHT22;38766;53.194;5.532;2023-08-31T10:44:27;19.60;99.90
51557;DHT22;38766;53.194;5.532;2023-08-31T10:46:54;19.50;99.90
51557;DHT22;38766;53.194;5.532;2023-08-31T10:49:21;19.40;99.90
51557;DHT22;38766;53.194;5.532;2023-08-31T10:51:58;19.30;99.90
51557;DHT22;38766;53.194;5.532;2023-08-31T10:54:40;19.20;99.90
51557;DHT22;38766;53.194;5.532;2023-08-31T10:57:06;19.00;99.90
51557;DHT22;38766;53.194;5.532;2023-08-31T11:02:26;18.80;99.90
51557;DHT22;38766;53.194;5.532;2023-08-31T11:04:55;18.70;99.90
51557;DHT22;38766;53.194;5.532;2023-08-31T11:07:25;18.70;99.90
51557;DHT22;38766;53.194;5.532;2023-08-31T11:09:51;18.70;99.90
51557;DHT22;38766;53.194;5.532;2023-08-31T11:12:17;18.90;99.90
51557;DHT22;38766;53.194;5.532;2023-08-31T11:14:43;19.20;99.90
51557;DHT22;38766;53.194;5.532;2023-08-31T11:17:09;19.30;99.90
51557;DHT22;38766;53.194;5.532;2023-08-31T11:19:37;19.40;99.90
51557;DHT22;38766;53.194;5.532;2023-08-31T11:22:03;19.50;99.90
51557;DHT22;38766;53.194;5.532;2023-08-31T11:24:33;19.60;99.90
51557;DHT22;38766;53.194;5.532;2023-08-31T11:26:59;19.60;99.90
51557;DHT22;38766;53.194;5.532;2023-08-31T11:29:25;19.60;99.90
51557;DHT22;38766;53.194;5.532;2023-08-31T11:31:50;19.60;99.90
51557;DHT22;38766;53.194;5.532;2023-08-31T11:34:17;19.50;99.90
51557;DHT22;38766;53.194;5.532;2023-08-31T11:36:45;19.40;99.90
51557;DHT22;38766;53.194;5.532;2023-08-31T11:39:14;19.20;99.90
51557;DHT22;38766;53.194;5.532;2023-08-31T11:41:43;19.10;99.90
51557;DHT22;38766;53.194;5.532;2023-08-31T11:44:13;19.00;99.90
51557;DHT22;38766;53.194;5.532;2023-08-31T11:46:42;19.00;99.90
51557;DHT22;38766;53.194;5.532;2023-08-31T11:49:09;18.80;99.90
51557;DHT22;38766;53.194;5.532;2023-08-31T11:51:35;18.60;99.90
51557;DHT22;38766;53.194;5.532;2023-08-31T11:54:03;18.40;99.90
51557;DHT22;38766;53.194;5.532;2023-08-31T11:56:43;18.10;99.90
51557;DHT22;38766;53.194;5.532;2023-08-31T11:59:12;18.00;99.90
51557;DHT22;38766;53.194;5.532;2023-08-31T12:01:45;17.90;99.90
51557;DHT22;38766;53.194;5.532;2023-08-31T12:04:21;18.00;99.90
51557;DHT22;38766;53.194;5.532;2023-08-31T12:06:51;18.10;99.90
51557;DHT22;38766;53.194;5.532;2023-08-31T12:09:18;18.30;99.90
51557;DHT22;38766;53.194;5.532;2023-08-31T12:11:52;18.70;99.90
51557;DHT22;38766;53.194;5.532;2023-08-31T12:14:19;18.90;99.90
51557;DHT22;38766;53.194;5.532;2023-08-31T12:16:44;19.10;99.90
51557;DHT22;38766;53.194;5.532;2023-08-31T12:19:10;19.20;99.90
51557;DHT22;38766;53.194;5.532;2023-08-31T12:21:36;19.20;99.90
51557;DHT22;38766;53.194;5.532;2023-08-31T12:24:02;19.10;99.90
51557;DHT22;38766;53.194;5.532;2023-08-31T12:26:29;19.20;99.90
51557;DHT22;38766;53.194;5.532;2023-08-31T12:28:54;19.20;99.90
51557;DHT22;38766;53.194;5.532;2023-08-31T12:31:22;19.20;99.90
51557;DHT22;38766;53.194;5.532;2023-08-31T12:33:47;19.20;99.90
51557;DHT22;38766;53.194;5.532;2023-08-31T12:36:13;19.10;99.90
51557;DHT22;38766;53.194;5.532;2023-08-31T12:38:39;18.90;99.90
51557;DHT22;38766;53.194;5.532;2023-08-31T12:41:05;18.80;99.90
51557;DHT22;38766;53.194;5.532;2023-08-31T12:43:30;18.70;99.90
51557;DHT22;38766;53.194;5.532;2023-08-31T12:45:57;18.60;99.90
51557;DHT22;38766;53.194;5.532;2023-08-31T12:48:23;18.60;99.90
51557;DHT22;38766;53.194;5.532;2023-08-31T12:50:48;18.50;99.90
51557;DHT22;38766;53.194;5.532;2023-08-31T12:53:15;18.50;99.90
51557;DHT22;38766;53.194;5.532;2023-08-31T12:55:40;18.50;99.90
51557;DHT22;38766;53.194;5.532;2023-08-31T12:58:06;18.40;99.90
51557;DHT22;38766;53.194;5.532;2023-08-31T13:00:31;18.40;99.90
51557;DHT22;38766;53.194;5.532;2023-08-31T13:02:57;18.40;99.90
51557;DHT22;38766;53.194;5.532;2023-08-31T13:05:23;18.40;99.90
51557;DHT22;38766;53.194;5.532;2023-08-31T13:07:48;18.40;99.90
51557;DHT22;38766;53.194;5.532;2023-08-31T13:10:14;18.50;99.90
51557;DHT22;38766;53.194;5.532;2023-08-31T13:12:40;18.60;99.90
51557;DHT22;38766;53.194;5.532;2023-08-31T13:15:06;18.70;99.90
51557;DHT22;38766;53.194;5.532;2023-08-31T13:17:33;18.80;99.90
51557;DHT22;38766;53.194;5.532;2023-08-31T13:19:59;18.80;99.90
51557;DHT22;38766;53.194;5.532;2023-08-31T13:22:25;19.00;99.90
51557;DHT22;38766;53.194;5.532;2023-08-31T13:24:51;19.10;99.90
51557;DHT22;38766;53.194;5.532;2023-08-31T13:27:17;19.20;99.90
51557;DHT22;38766;53.194;5.532;2023-08-31T13:29:43;19.30;99.90
51557;DHT22;38766;53.194;5.532;2023-08-31T13:32:09;19.40;99.90
51557;DHT22;38766;53.194;5.532;2023-08-31T13:34:35;19.50;99.90
51557;DHT22;38766;53.194;5.532;2023-08-31T13:37:05;19.50;99.90
51557;DHT22;38766;53.194;5.532;2023-08-31T13:39:33;19.60;99.90
51557;DHT22;38766;53.194;5.532;2023-08-31T13:41:59;19.70;99.90
51557;DHT22;38766;53.194;5.532;2023-08-31T13:44:27;19.90;99.90
51557;DHT22;38766;53.194;5.532;2023-08-31T13:46:52;19.90;99.90
51557;DHT22;38766;53.194;5.532;2023-08-31T13:49:18;20.00;99.90
51557;DHT22;38766;53.194;5.532;2023-08-31T13:51:44;20.00;99.90
51557;DHT22;38766;53.194;5.532;2023-08-31T13:54:10;20.10;99.90
51557;DHT22;38766;53.194;5.532;2023-08-31T13:56:36;20.10;99.90
51557;DHT22;38766;53.194;5.532;2023-08-31T13:59:02;20.20;99.90
51557;DHT22;38766;53.194;5.532;2023-08-31T14:01:28;20.20;99.90
51557;DHT22;38766;53.194;5.532;2023-08-31T14:03:54;20.20;99.90
51557;DHT22;38766;53.194;5.532;2023-08-31T14:06:20;20.30;99.90
51557;DHT22;38766;53.194;5.532;2023-08-31T14:08:45;20.40;99.90
51557;DHT22;38766;53.194;5.532;2023-08-31T14:11:11;20.40;99.90
51557;DHT22;38766;53.194;5.532;2023-08-31T14:13:37;20.50;99.90
51557;DHT22;38766;53.194;5.532;2023-08-31T14:16:02;20.60;99.90
51557;DHT22;38766;53.194;5.532;2023-08-31T14:18:29;20.60;99.90
51557;DHT22;38766;53.194;5.532;2023-08-31T14:20:56;20.60;99.90
51557;DHT22;38766;53.194;5.532;2023-08-31T14:23:23;20.60;99.90
51557;DHT22;38766;53.194;5.532;2023-08-31T14:25:49;20.60;99.90
51557;DHT22;38766;53.194;5.532;2023-08-31T14:28:14;20.60;99.90
51557;DHT22;38766;53.194;5.532;2023-08-31T14:30:40;20.60;99.90
51557;DHT22;38766;53.194;5.532;2023-08-31T14:33:05;20.60;99.90
51557;DHT22;38766;53.194;5.532;2023-08-31T14:35:31;20.60;99.90
51557;DHT22;38766;53.194;5.532;2023-08-31T14:37:57;20.60;99.90
51557;DHT22;38766;53.194;5.532;2023-08-31T14:40:26;20.60;99.90
51557;DHT22;38766;53.194;5.532;2023-08-31T14:42:51;20.60;99.90
51557;DHT22;38766;53.194;5.532;2023-08-31T14:45:17;20.60;99.90
51557;DHT22;38766;53.194;5.532;2023-08-31T14:47:43;20.60;99.90
51557;DHT22;38766;53.194;5.532;2023-08-31T14:50:09;20.60;99.90
51557;DHT22;38766;53.194;5.532;2023-08-31T14:52:34;20.60;99.90
51557;DHT22;38766;53.194;5.532;2023-08-31T14:55:00;20.60;99.90
51557;DHT22;38766;53.194;5.532;2023-08-31T14:57:25;20.50;99.90
51557;DHT22;38766;53.194;5.532;2023-08-31T14:59:51;20.50;99.90
51557;DHT22;38766;53.194;5.532;2023-08-31T15:02:20;20.50;99.90
51557;DHT22;38766;53.194;5.532;2023-08-31T15:04:48;20.50;99.90
51557;DHT22;38766;53.194;5.532;2023-08-31T15:07:17;20.50;99.90
51557;DHT22;38766;53.194;5.532;2023-08-31T15:09:44;20.50;99.90
51557;DHT22;38766;53.194;5.532;2023-08-31T15:12:09;20.50;99.90
51557;DHT22;38766;53.194;5.532;2023-08-31T15:14:35;20.50;99.90
51557;DHT22;38766;53.194;5.532;2023-08-31T15:17:03;20.40;99.90
51557;DHT22;38766;53.194;5.532;2023-08-31T15:19:29;20.40;99.90
51557;DHT22;38766;53.194;5.532;2023-08-31T15:21:54;20.40;99.90
51557;DHT22;38766;53.194;5.532;2023-08-31T15:24:20;20.40;99.90
51557;DHT22;38766;53.194;5.532;2023-08-31T15:26:46;20.30;99.90
51557;DHT22;38766;53.194;5.532;2023-08-31T15:29:11;20.30;99.90
51557;DHT22;38766;53.194;5.532;2023-08-31T15:31:37;20.30;99.90
51557;DHT22;38766;53.194;5.532;2023-08-31T15:34:02;20.20;99.90
51557;DHT22;38766;53.194;5.532;2023-08-31T15:36:29;20.20;99.90